This is the latest recevied weather packets stored in our database for station/object PY3MO-11. If no packets are shown the sender has not sent any weather packets the latest 10 day(s).
| Time | Temp. | Humidity | Pressure | Rain* | Wind** | Luminosity | Snow |
|---|---|---|---|---|---|---|---|
| 1777837743 | 15.56° C | 60% | 1020.1 hPa | 0 mm | - | - | - |
| 1777837443 | 16.11° C | 59% | 1020.1 hPa | 0 mm | - | - | - |
| 1777837142 | 16.67° C | 59% | 1020.2 hPa | 0 mm | - | - | - |
| 1777836842 | 16.11° C | 59% | 1020.2 hPa | 0 mm | - | - | - |
| 1777836542 | 16.11° C | 59% | 1020.1 hPa | 0 mm | - | - | - |
| 1777836242 | 15.56° C | 59% | 1020.3 hPa | 0 mm | - | - | - |
| 1777835942 | 16.11° C | 56% | 1020.2 hPa | 0 mm | - | - | - |
| 1777835642 | 16.67° C | 55% | 1020 hPa | 0 mm | - | - | - |
| 1777835344 | 17.22° C | 55% | 1020.1 hPa | 0 mm | - | - | - |
| 1777835043 | 17.22° C | 54% | 1020.5 hPa | 0 mm | - | - | - |
| 1777834743 | 17.78° C | 50% | 1020.3 hPa | 0 mm | - | - | - |
| 1777834443 | 17.78° C | 50% | 1020.6 hPa | 0 mm | - | - | - |
| 1777834143 | 17.78° C | 50% | 1020.5 hPa | 0 mm | - | - | - |
| 1777833843 | 17.78° C | 50% | 1020.6 hPa | 0 mm | - | - | - |
| 1777833543 | 18.33° C | 50% | 1020.6 hPa | 0 mm | - | - | - |
| 1777833242 | 17.78° C | 51% | 1020.5 hPa | 0 mm | - | - | - |
| 1777832942 | 17.22° C | 54% | 1020.6 hPa | 0 mm | - | - | - |
| 1777832642 | 17.22° C | 54% | 1020.8 hPa | 0 mm | - | - | - |
| 1777832342 | 17.78° C | 50% | 1020.8 hPa | 0 mm | - | - | - |
| 1777832042 | 17.78° C | 50% | 1020.8 hPa | 0 mm | - | - | - |
| 1777831744 | 17.78° C | 51% | 1020.7 hPa | 0 mm | - | - | - |
| 1777831443 | 16.67° C | 54% | 1020.7 hPa | 0 mm | - | - | - |
| 1777831143 | 17.78° C | 49% | 1020.7 hPa | 0 mm | - | - | - |
| 1777830843 | 17.78° C | 51% | 1020.7 hPa | 0 mm | - | - | - |
| 1777830543 | 17.22° C | 55% | 1020.6 hPa | 0 mm | - | - | - |
* Rain latest hour (hover to see other rain measurements)
** Current wind speed in m/s (hover to see current wind gust speed)